createdAt,value
2023-03-22T00:00:25.620Z,11.38
2023-03-22T00:01:25.607Z,11.38
2023-03-22T00:02:25.677Z,11.37
2023-03-22T00:03:25.624Z,11.37
2023-03-22T00:04:25.580Z,11.36
2023-03-22T00:05:25.560Z,11.33
2023-03-22T00:06:25.578Z,11.34
2023-03-22T00:07:25.545Z,11.31
2023-03-22T00:08:25.527Z,11.31
2023-03-22T00:09:25.519Z,11.31
2023-03-22T00:10:25.512Z,11.30
2023-03-22T00:11:25.499Z,11.30
2023-03-22T00:12:25.487Z,11.30
2023-03-22T00:13:25.495Z,11.28
2023-03-22T00:14:25.461Z,11.30
2023-03-22T00:15:25.445Z,11.30
2023-03-22T00:16:25.548Z,11.30
2023-03-22T00:17:25.427Z,11.30
2023-03-22T00:18:25.411Z,11.28
2023-03-22T00:19:25.400Z,11.28
2023-03-22T00:20:25.395Z,11.25
2023-03-22T00:21:25.374Z,11.22
2023-03-22T00:22:25.372Z,11.19
2023-03-22T00:23:25.359Z,11.18
2023-03-22T00:24:25.342Z,11.18
2023-03-22T00:25:25.331Z,11.15
2023-03-22T00:26:25.320Z,11.15
2023-03-22T00:27:25.308Z,11.15
2023-03-22T00:28:25.299Z,11.14
2023-03-22T00:29:25.315Z,11.15
2023-03-22T00:30:25.274Z,11.15
2023-03-22T00:31:25.282Z,11.12
2023-03-22T00:32:25.256Z,11.12
2023-03-22T00:33:25.238Z,11.14
2023-03-22T00:34:25.235Z,11.11
2023-03-22T00:35:25.292Z,11.11
2023-03-22T00:36:25.203Z,11.10
2023-03-22T00:37:25.207Z,11.10
2023-03-22T00:38:39.550Z,11.08
2023-03-22T00:39:25.172Z,11.08
2023-03-22T00:40:25.164Z,11.07
2023-03-22T00:41:25.149Z,11.08
2023-03-22T00:42:25.139Z,11.07
2023-03-22T00:43:25.127Z,11.03
2023-03-22T00:44:25.119Z,11.03
2023-03-22T00:45:25.129Z,11.04
2023-03-22T00:46:25.176Z,11.03
2023-03-22T00:47:25.098Z,11.04
2023-03-22T00:48:25.134Z,11.03
2023-03-22T00:49:25.056Z,11.04
2023-03-22T00:50:25.045Z,11.04
2023-03-22T00:51:25.037Z,11.07
2023-03-22T00:52:25.022Z,11.08
2023-03-22T00:53:25.014Z,11.08
2023-03-22T00:54:24.997Z,11.08
2023-03-22T00:55:24.989Z,11.04
2023-03-22T00:56:24.984Z,11.04
2023-03-22T00:57:24.972Z,11.03
2023-03-22T00:58:24.961Z,11.04
2023-03-22T00:59:24.944Z,11.03
2023-03-22T01:00:24.931Z,11.00
2023-03-22T01:01:25.023Z,11.00
2023-03-22T01:02:24.923Z,10.97
2023-03-22T01:03:24.947Z,10.99
2023-03-22T01:04:24.896Z,10.97
2023-03-22T01:05:24.874Z,10.99
2023-03-22T01:06:24.902Z,10.99
2023-03-22T01:07:24.858Z,10.97
2023-03-22T01:08:24.838Z,10.99
2023-03-22T01:09:24.828Z,10.96
2023-03-22T01:10:24.817Z,10.96
2023-03-22T01:11:24.806Z,10.94
2023-03-22T01:12:24.799Z,10.94
2023-03-22T01:13:24.786Z,10.94
2023-03-22T01:14:24.768Z,10.93
2023-03-22T01:15:24.764Z,10.94
2023-03-22T01:16:24.830Z,10.94
2023-03-22T01:17:24.775Z,10.94
2023-03-22T01:18:24.729Z,10.93
2023-03-22T01:19:24.715Z,10.96
2023-03-22T01:20:24.699Z,10.93
2023-03-22T01:21:24.695Z,10.94
2023-03-22T01:22:24.680Z,10.96
2023-03-22T01:23:24.666Z,10.96
2023-03-22T01:24:24.654Z,10.96
2023-03-22T01:25:24.648Z,10.96
2023-03-22T01:26:24.646Z,10.96
2023-03-22T01:27:24.619Z,10.96
2023-03-22T01:28:26.958Z,10.97
2023-03-22T01:29:24.603Z,11.00
2023-03-22T01:30:24.590Z,10.97
2023-03-22T01:31:24.604Z,10.94
2023-03-22T01:32:24.564Z,10.94
2023-03-22T01:33:24.580Z,10.93
2023-03-22T01:34:24.545Z,10.92
2023-03-22T01:35:24.556Z,10.92
2023-03-22T01:36:24.526Z,10.92
2023-03-22T01:37:24.506Z,10.93
2023-03-22T01:38:24.500Z,10.93
2023-03-22T01:39:24.487Z,10.94
2023-03-22T01:40:24.472Z,10.96
2023-03-22T01:41:24.467Z,10.96
2023-03-22T01:42:24.457Z,10.94
2023-03-22T01:43:24.439Z,10.94
2023-03-22T01:44:24.431Z,10.92
2023-03-22T01:45:24.416Z,10.89
2023-03-22T01:46:24.445Z,10.89
2023-03-22T01:47:24.395Z,10.86
2023-03-22T01:48:24.487Z,10.85
2023-03-22T01:49:24.456Z,10.85
2023-03-22T01:50:24.371Z,10.84
2023-03-22T01:51:24.348Z,10.84
2023-03-22T01:52:24.345Z,10.84
2023-03-22T01:53:24.329Z,10.84
2023-03-22T01:54:24.316Z,10.84
2023-03-22T01:55:24.305Z,10.84
2023-03-22T01:56:24.294Z,10.84
2023-03-22T01:57:24.283Z,10.84
2023-03-22T01:58:24.274Z,10.84
2023-03-22T01:59:24.268Z,10.82
2023-03-22T02:00:24.250Z,10.82
2023-03-22T02:01:24.298Z,10.81
2023-03-22T02:02:24.247Z,10.79
2023-03-22T02:03:24.222Z,10.77
2023-03-22T02:04:24.202Z,10.77
2023-03-22T02:05:24.218Z,10.75
2023-03-22T02:06:24.186Z,10.77
2023-03-22T02:07:24.168Z,10.78
2023-03-22T02:08:24.157Z,10.79
2023-03-22T02:09:24.145Z,10.79
2023-03-22T02:10:24.135Z,10.78
2023-03-22T02:11:24.123Z,10.74
2023-03-22T02:12:24.112Z,10.74
2023-03-22T02:13:24.104Z,10.74
2023-03-22T02:14:25.712Z,10.72
2023-03-22T02:15:24.087Z,10.71
2023-03-22T02:16:24.073Z,10.69
2023-03-22T02:17:24.055Z,10.69
2023-03-22T02:18:24.047Z,10.69
2023-03-22T02:19:24.049Z,10.72
2023-03-22T02:20:24.029Z,10.75
2023-03-22T02:21:24.034Z,10.72
2023-03-22T02:22:24.102Z,10.69
2023-03-22T02:23:23.996Z,10.67
2023-03-22T02:24:23.976Z,10.67
2023-03-22T02:25:23.964Z,10.69
2023-03-22T02:26:23.965Z,10.67
2023-03-22T02:27:23.947Z,10.64
2023-03-22T02:28:23.931Z,10.66
2023-03-22T02:29:23.927Z,10.63
2023-03-22T02:30:23.908Z,10.64
2023-03-22T02:31:23.935Z,10.66
2023-03-22T02:32:23.890Z,10.64
2023-03-22T02:33:23.872Z,10.63
2023-03-22T02:34:23.866Z,10.64
2023-03-22T02:35:23.893Z,10.63
2023-03-22T02:36:23.840Z,10.61
2023-03-22T02:37:23.859Z,10.60
2023-03-22T02:38:23.826Z,10.61
2023-03-22T02:39:23.804Z,10.60
2023-03-22T02:40:23.796Z,10.57
2023-03-22T02:41:23.784Z,10.56
2023-03-22T02:42:23.774Z,10.54
2023-03-22T02:43:23.767Z,10.54
2023-03-22T02:44:23.750Z,10.54
2023-03-22T02:45:23.747Z,10.53
2023-03-22T02:46:23.776Z,10.53
2023-03-22T02:47:23.715Z,10.49
2023-03-22T02:48:23.734Z,10.49
2023-03-22T02:49:23.690Z,10.49
2023-03-22T02:50:23.680Z,10.48
2023-03-22T02:51:23.670Z,10.48
2023-03-22T02:52:23.658Z,10.48
2023-03-22T02:53:23.681Z,10.48
2023-03-22T02:54:23.641Z,10.46
2023-03-22T02:55:23.639Z,10.48
2023-03-22T02:56:23.621Z,10.48
2023-03-22T02:57:23.610Z,10.45
2023-03-22T02:58:23.590Z,10.43
2023-03-22T02:59:23.586Z,10.45
2023-03-22T03:00:23.568Z,10.45
2023-03-22T03:01:23.604Z,10.45
2023-03-22T03:02:23.559Z,10.43
2023-03-22T03:03:23.537Z,10.41
2023-03-22T03:04:23.524Z,10.39
2023-03-22T03:05:23.512Z,10.41
2023-03-22T03:06:23.499Z,10.42
2023-03-22T03:07:23.492Z,10.38
2023-03-22T03:08:23.486Z,10.38
2023-03-22T03:09:23.493Z,10.36
2023-03-22T03:10:23.455Z,10.38
2023-03-22T03:11:23.443Z,10.36
2023-03-22T03:12:23.436Z,10.39
2023-03-22T03:13:23.429Z,10.39
2023-03-22T03:14:23.417Z,10.38
2023-03-22T03:15:23.405Z,10.36
2023-03-22T03:16:23.408Z,10.35
2023-03-22T03:17:23.374Z,10.34
2023-03-22T03:18:23.365Z,10.31
2023-03-22T03:19:23.357Z,10.30
2023-03-22T03:20:23.341Z,10.28
2023-03-22T03:21:23.340Z,10.26
2023-03-22T03:22:23.331Z,10.26
2023-03-22T03:23:23.310Z,10.26
2023-03-22T03:24:23.312Z,10.24
2023-03-22T03:25:23.312Z,10.24
2023-03-22T03:26:23.281Z,10.23
2023-03-22T03:27:23.266Z,10.23
2023-03-22T03:28:23.256Z,10.21
2023-03-22T03:29:23.241Z,10.21
2023-03-22T03:30:23.238Z,10.20
2023-03-22T03:31:23.245Z,10.17
2023-03-22T03:32:23.213Z,10.14
2023-03-22T03:33:23.210Z,10.16
2023-03-22T03:34:23.217Z,10.14
2023-03-22T03:35:23.271Z,10.14
2023-03-22T03:36:23.172Z,10.14
2023-03-22T03:37:23.156Z,10.17
2023-03-22T03:38:23.140Z,10.17
2023-03-22T03:39:23.132Z,10.14
2023-03-22T03:40:23.126Z,10.12
2023-03-22T03:41:23.128Z,10.12
2023-03-22T03:42:23.146Z,10.14
2023-03-22T03:43:23.101Z,10.18
2023-03-22T03:44:23.076Z,10.16
2023-03-22T03:45:23.065Z,10.12
2023-03-22T03:46:23.053Z,10.10
2023-03-22T03:47:23.041Z,10.09
2023-03-22T03:48:23.182Z,10.08
2023-03-22T03:49:23.021Z,10.08
2023-03-22T03:50:23.013Z,10.09
2023-03-22T03:51:23.000Z,10.06
2023-03-22T03:52:22.982Z,10.06
2023-03-22T03:53:22.974Z,10.03
2023-03-22T03:54:22.961Z,10.02
2023-03-22T03:55:22.988Z,10.03
2023-03-22T03:56:22.953Z,10.02
2023-03-22T03:57:22.953Z,10.05
2023-03-22T03:58:22.921Z,10.03
2023-03-22T03:59:22.909Z,10.02
2023-03-22T04:00:22.897Z,10.01
2023-03-22T04:01:22.890Z,10.01
2023-03-22T04:02:22.963Z,10.01
2023-03-22T04:03:22.865Z,10.01
2023-03-22T04:04:22.901Z,10.01
2023-03-22T04:05:22.837Z,10.01
2023-03-22T04:06:22.830Z,10.01
2023-03-22T04:07:22.812Z,10.01
2023-03-22T04:08:22.804Z,10.01
2023-03-22T04:09:22.795Z,10.01
2023-03-22T04:10:22.779Z,10.01
2023-03-22T04:11:22.772Z,9.99
2023-03-22T04:12:22.757Z,10.01
2023-03-22T04:13:22.775Z,10.02
2023-03-22T04:14:22.734Z,10.03
2023-03-22T04:15:22.736Z,10.03
2023-03-22T04:16:22.722Z,10.02
2023-03-22T04:17:22.710Z,10.05
2023-03-22T04:18:22.699Z,10.05
2023-03-22T04:19:22.680Z,10.06
2023-03-22T04:20:22.673Z,10.06
2023-03-22T04:21:22.662Z,10.06
2023-03-22T04:22:22.646Z,10.03
2023-03-22T04:23:22.648Z,10.03
2023-03-22T04:24:22.622Z,10.03
2023-03-22T04:25:22.649Z,10.03
2023-03-22T04:26:23.718Z,10.03
2023-03-22T04:27:22.617Z,10.05
2023-03-22T04:28:22.578Z,10.05
2023-03-22T04:29:22.595Z,10.05
2023-03-22T04:30:22.562Z,10.05
2023-03-22T04:31:22.652Z,10.06
2023-03-22T04:32:22.536Z,10.08
2023-03-22T04:33:22.526Z,10.08
2023-03-22T04:34:22.508Z,10.08
2023-03-22T04:35:22.526Z,10.08
2023-03-22T04:36:22.495Z,10.06
2023-03-22T04:37:22.483Z,10.06
2023-03-22T04:38:22.461Z,10.03
2023-03-22T04:39:22.462Z,10.05
2023-03-22T04:40:22.448Z,10.05
2023-03-22T04:41:22.434Z,10.05
2023-03-22T04:42:22.429Z,10.05
2023-03-22T04:43:22.407Z,10.05
2023-03-22T04:44:22.398Z,10.06
2023-03-22T04:45:22.417Z,10.05
2023-03-22T04:46:22.449Z,10.05
2023-03-22T04:47:22.367Z,10.05
2023-03-22T04:48:22.487Z,10.02
2023-03-22T04:49:22.341Z,10.03
2023-03-22T04:50:22.327Z,10.02
2023-03-22T04:51:22.320Z,10.03
2023-03-22T04:52:22.306Z,10.02
2023-03-22T04:53:22.304Z,10.02
2023-03-22T04:54:22.282Z,10.03
2023-03-22T04:55:22.274Z,10.05
2023-03-22T04:56:22.259Z,10.05
2023-03-22T04:57:24.248Z,10.03
2023-03-22T04:58:22.238Z,10.05
2023-03-22T04:59:22.242Z,10.03
2023-03-22T05:00:22.217Z,10.03
2023-03-22T05:01:22.241Z,10.02
2023-03-22T05:02:22.217Z,10.02
2023-03-22T05:03:22.189Z,10.03
2023-03-22T05:04:22.179Z,10.06
2023-03-22T05:05:22.158Z,10.05
2023-03-22T05:06:22.148Z,10.06
2023-03-22T05:07:22.136Z,10.05
2023-03-22T05:08:22.123Z,10.06
2023-03-22T05:09:23.530Z,10.06
2023-03-22T05:10:22.108Z,10.05
2023-03-22T05:11:22.093Z,10.05
2023-03-22T05:12:22.098Z,10.06
2023-03-22T05:13:22.076Z,10.09
2023-03-22T05:14:22.128Z,10.12
2023-03-22T05:15:22.061Z,10.12
2023-03-22T05:16:22.093Z,10.12
2023-03-22T05:17:22.086Z,10.17
2023-03-22T05:18:22.021Z,10.16
2023-03-22T05:19:22.004Z,10.18
2023-03-22T05:20:21.996Z,10.18
2023-03-22T05:21:22.012Z,10.17
2023-03-22T05:22:23.968Z,10.18
2023-03-22T05:23:21.961Z,10.17
2023-03-22T05:24:21.948Z,10.16
2023-03-22T05:25:21.945Z,10.17
2023-03-22T05:26:21.923Z,10.20
2023-03-22T05:27:21.914Z,10.21
2023-03-22T05:28:21.900Z,10.21
2023-03-22T05:29:21.887Z,10.24
2023-03-22T05:30:23.879Z,10.26
2023-03-22T05:31:21.960Z,10.27
2023-03-22T05:32:21.922Z,10.30
2023-03-22T05:33:22.038Z,10.28
2023-03-22T05:34:21.900Z,10.28
2023-03-22T05:35:21.851Z,10.26
2023-03-22T05:36:21.812Z,10.24
2023-03-22T05:37:21.802Z,10.24
2023-03-22T05:38:21.797Z,10.20
2023-03-22T05:39:21.784Z,10.20
2023-03-22T05:40:21.768Z,10.18
2023-03-22T05:41:21.771Z,10.21
2023-03-22T05:42:21.754Z,10.23
2023-03-22T05:43:21.737Z,10.23
2023-03-22T05:44:21.725Z,10.26
2023-03-22T05:45:21.714Z,10.30
2023-03-22T05:46:21.747Z,10.31
2023-03-22T05:47:21.695Z,10.30
2023-03-22T05:48:21.714Z,10.24
2023-03-22T05:49:21.732Z,10.20
2023-03-22T05:50:21.664Z,10.20
2023-03-22T05:51:21.650Z,10.17
2023-03-22T05:52:21.648Z,10.16
2023-03-22T05:53:21.633Z,10.17
2023-03-22T05:54:21.612Z,10.16
2023-03-22T05:55:21.606Z,10.16
2023-03-22T05:56:21.589Z,10.16
2023-03-22T05:57:21.584Z,10.18
2023-03-22T05:58:21.576Z,10.20
2023-03-22T05:59:21.556Z,10.23
2023-03-22T06:00:21.553Z,10.24
2023-03-22T06:01:21.598Z,10.26
2023-03-22T06:02:21.626Z,10.28
2023-03-22T06:03:21.599Z,10.30
2023-03-22T06:04:21.506Z,10.27
2023-03-22T06:05:21.532Z,10.23
2023-03-22T06:06:21.479Z,10.23
2023-03-22T06:07:21.473Z,10.21
2023-03-22T06:08:21.456Z,10.26
2023-03-22T06:09:21.451Z,10.26
2023-03-22T06:10:21.433Z,10.27
2023-03-22T06:11:21.428Z,10.26
2023-03-22T06:12:21.420Z,10.21
2023-03-22T06:13:21.492Z,10.20
2023-03-22T06:14:21.398Z,10.17
2023-03-22T06:15:21.395Z,10.17
2023-03-22T06:16:21.409Z,10.17
2023-03-22T06:17:21.362Z,10.18
2023-03-22T06:18:21.344Z,10.21
2023-03-22T06:19:21.341Z,10.24
2023-03-22T06:20:21.336Z,10.26
2023-03-22T06:21:21.340Z,10.30
2023-03-22T06:22:21.313Z,10.30
2023-03-22T06:23:21.292Z,10.34
2023-03-22T06:24:21.322Z,10.31
2023-03-22T06:25:21.267Z,10.30
2023-03-22T06:26:21.256Z,10.31
2023-03-22T06:27:21.244Z,10.30
2023-03-22T06:28:21.274Z,10.34
2023-03-22T06:29:21.228Z,10.34
2023-03-22T06:30:21.219Z,10.38
2023-03-22T06:31:21.269Z,10.42
2023-03-22T06:32:21.182Z,10.45
2023-03-22T06:33:21.173Z,10.42
2023-03-22T06:34:21.158Z,10.42
2023-03-22T06:35:21.228Z,10.42
2023-03-22T06:36:21.163Z,10.45
2023-03-22T06:37:21.152Z,10.46
2023-03-22T06:38:21.126Z,10.42
2023-03-22T06:39:21.103Z,10.41
2023-03-22T06:40:21.098Z,10.41
2023-03-22T06:41:21.078Z,10.42
2023-03-22T06:42:21.069Z,10.43
2023-03-22T06:43:21.067Z,10.49
2023-03-22T06:44:21.045Z,10.51
2023-03-22T06:45:21.068Z,10.54
2023-03-22T06:46:21.146Z,10.53
2023-03-22T06:47:21.021Z,10.51
2023-03-22T06:48:21.020Z,10.56
2023-03-22T06:49:20.990Z,10.53
2023-03-22T06:50:20.989Z,10.54
2023-03-22T06:51:20.960Z,10.54
2023-03-22T06:52:20.949Z,10.54
2023-03-22T06:53:20.966Z,10.59
2023-03-22T06:54:20.929Z,10.63
2023-03-22T06:55:20.921Z,10.71
2023-03-22T06:56:20.905Z,10.74
2023-03-22T06:57:20.903Z,10.71
2023-03-22T06:58:20.885Z,10.72
2023-03-22T06:59:20.872Z,10.72
2023-03-22T07:00:20.866Z,10.69
2023-03-22T07:01:20.970Z,10.69
2023-03-22T07:02:20.843Z,10.67
2023-03-22T07:03:20.833Z,10.71
2023-03-22T07:04:20.839Z,10.72
2023-03-22T07:05:20.802Z,10.74
2023-03-22T07:06:20.792Z,10.77
2023-03-22T07:07:20.787Z,10.78
2023-03-22T07:08:20.771Z,10.85
2023-03-22T07:09:20.785Z,10.90
2023-03-22T07:10:20.753Z,10.93
2023-03-22T07:11:20.752Z,10.97
2023-03-22T07:12:20.732Z,10.97
2023-03-22T07:13:20.721Z,10.99
2023-03-22T07:14:20.704Z,10.97
2023-03-22T07:15:20.704Z,11.00
2023-03-22T07:16:20.742Z,11.04
2023-03-22T07:17:20.668Z,11.04
2023-03-22T07:18:20.668Z,11.00
2023-03-22T07:19:20.680Z,11.03
2023-03-22T07:20:20.637Z,11.03
2023-03-22T07:21:20.628Z,10.97
2023-03-22T07:22:20.612Z,11.00
2023-03-22T07:23:20.609Z,11.00
2023-03-22T07:24:20.604Z,11.04
2023-03-22T07:25:20.604Z,11.10
2023-03-22T07:26:20.573Z,11.10
2023-03-22T07:27:20.557Z,11.08
2023-03-22T07:28:20.559Z,11.15
2023-03-22T07:29:20.533Z,11.25
2023-03-22T07:30:20.541Z,11.23
2023-03-22T07:31:20.575Z,11.22
2023-03-22T07:32:20.567Z,11.19
2023-03-22T07:33:20.491Z,11.19
2023-03-22T07:34:20.544Z,11.22
2023-03-22T07:35:20.487Z,11.19
2023-03-22T07:36:20.471Z,11.25
2023-03-22T07:37:20.450Z,11.30
2023-03-22T07:38:20.432Z,11.27
2023-03-22T07:39:20.427Z,11.25
2023-03-22T07:40:20.416Z,11.28
2023-03-22T07:41:20.451Z,11.31
2023-03-22T07:42:20.398Z,11.37
2023-03-22T07:43:20.389Z,11.41
2023-03-22T07:44:20.373Z,11.46
2023-03-22T07:45:20.462Z,11.46
2023-03-22T07:46:20.401Z,11.51
2023-03-22T07:47:34.128Z,11.54
2023-03-22T07:48:22.451Z,11.58
2023-03-22T07:49:20.311Z,11.66
2023-03-22T07:50:20.302Z,11.73
2023-03-22T07:51:20.302Z,11.84
2023-03-22T07:52:20.289Z,11.95
2023-03-22T07:53:20.267Z,12.12
2023-03-22T07:54:32.965Z,12.24
2023-03-22T07:55:20.243Z,12.25
2023-03-22T07:56:20.233Z,12.17
2023-03-22T07:57:20.244Z,12.27
2023-03-22T07:58:20.216Z,12.29
2023-03-22T07:59:20.197Z,12.39
2023-03-22T08:00:20.201Z,12.49
2023-03-22T08:01:20.183Z,12.53
2023-03-22T08:02:20.249Z,12.54
2023-03-22T08:03:20.188Z,12.63
2023-03-22T08:04:20.144Z,12.77
2023-03-22T08:05:20.144Z,13.04
2023-03-22T08:06:20.121Z,13.27
2023-03-22T08:07:20.110Z,13.32
2023-03-22T08:08:20.099Z,13.27
2023-03-22T08:09:20.083Z,13.27
2023-03-22T08:10:20.073Z,13.45
2023-03-22T08:11:20.071Z,13.42
2023-03-22T08:12:20.076Z,13.32
2023-03-22T08:13:20.171Z,13.20
2023-03-22T08:14:27.433Z,13.24
2023-03-22T08:15:22.497Z,13.27
2023-03-22T08:16:20.046Z,13.35
2023-03-22T08:17:19.995Z,13.38
2023-03-22T08:18:19.987Z,13.41
2023-03-22T08:19:19.973Z,13.34
2023-03-22T08:20:19.968Z,13.20
2023-03-22T08:21:19.951Z,13.09
2023-03-22T08:22:19.959Z,13.11
2023-03-22T08:23:26.346Z,13.01
2023-03-22T08:24:19.915Z,12.98
2023-03-22T08:25:19.911Z,13.14
2023-03-22T08:26:19.907Z,13.24
2023-03-22T08:27:19.884Z,13.27
2023-03-22T08:28:19.884Z,13.42
2023-03-22T08:29:19.899Z,13.56
2023-03-22T08:30:19.857Z,13.54
2023-03-22T08:31:19.909Z,13.41
2023-03-22T08:32:19.828Z,13.41
2023-03-22T08:33:19.825Z,13.48
2023-03-22T08:34:19.815Z,13.53
2023-03-22T08:35:19.852Z,13.56
2023-03-22T08:36:19.800Z,13.54
2023-03-22T08:37:19.777Z,13.57
2023-03-22T08:38:19.774Z,13.81
2023-03-22T08:39:19.749Z,13.99
2023-03-22T08:40:19.850Z,13.93
2023-03-22T08:41:19.747Z,13.92
2023-03-22T08:42:19.744Z,14.09
2023-03-22T08:43:19.714Z,14.26
2023-03-22T08:44:19.709Z,14.30
2023-03-22T08:45:19.720Z,14.22
2023-03-22T08:46:19.752Z,14.03
2023-03-22T08:47:19.677Z,13.89
2023-03-22T08:48:19.738Z,13.95
2023-03-22T08:49:19.645Z,13.99
2023-03-22T08:50:19.626Z,13.93
2023-03-22T08:51:19.624Z,13.95
2023-03-22T08:52:19.601Z,14.04
2023-03-22T08:53:19.587Z,14.16
2023-03-22T08:54:19.576Z,14.15
2023-03-22T08:55:19.566Z,14.11
2023-03-22T08:56:19.563Z,14.23
2023-03-22T08:57:19.643Z,14.26
2023-03-22T08:58:19.537Z,14.41
2023-03-22T08:59:19.517Z,14.56
2023-03-22T09:00:19.585Z,14.51
2023-03-22T09:01:19.710Z,14.36
2023-03-22T09:02:19.530Z,14.28
2023-03-22T09:03:19.479Z,14.30
2023-03-22T09:04:19.557Z,14.31
2023-03-22T09:05:19.466Z,14.46
2023-03-22T09:06:19.439Z,14.56
2023-03-22T09:07:19.443Z,14.61
2023-03-22T09:08:20.072Z,14.49
2023-03-22T09:09:19.399Z,14.48
2023-03-22T09:10:19.415Z,14.51
2023-03-22T09:11:19.387Z,14.59
2023-03-22T09:12:19.379Z,14.82
2023-03-22T09:13:25.363Z,15.04
2023-03-22T09:14:19.352Z,15.14
2023-03-22T09:15:19.335Z,15.31
2023-03-22T09:16:19.407Z,15.43
2023-03-22T09:17:21.423Z,15.48
2023-03-22T09:18:19.313Z,15.56
2023-03-22T09:19:19.291Z,15.62
2023-03-22T09:20:19.303Z,15.73
2023-03-22T09:21:19.266Z,15.99
2023-03-22T09:22:19.258Z,15.91
2023-03-22T09:23:19.247Z,15.90
2023-03-22T09:24:19.238Z,15.80
2023-03-22T09:25:19.228Z,15.76
2023-03-22T09:26:19.214Z,15.81
2023-03-22T09:27:19.198Z,16.05
2023-03-22T09:28:19.293Z,16.42
2023-03-22T09:29:19.185Z,16.73
2023-03-22T09:30:19.162Z,16.64
2023-03-22T09:31:20.589Z,16.58
2023-03-22T09:32:19.248Z,16.57
2023-03-22T09:33:19.164Z,16.50
2023-03-22T09:34:19.127Z,16.42
2023-03-22T09:35:19.145Z,16.63
2023-03-22T09:36:19.096Z,16.94
2023-03-22T09:37:19.091Z,16.98
2023-03-22T09:38:19.074Z,16.99
2023-03-22T09:39:19.069Z,16.97
2023-03-22T09:40:19.050Z,17.06
2023-03-22T09:41:19.042Z,17.19
2023-03-22T09:42:19.025Z,17.50
2023-03-22T09:43:19.019Z,17.52
2023-03-22T09:44:19.009Z,17.50
2023-03-22T09:45:19.009Z,17.22
2023-03-22T09:46:19.037Z,17.06
2023-03-22T09:47:18.977Z,17.07
2023-03-22T09:48:19.172Z,17.16
2023-03-22T09:49:18.997Z,17.06
2023-03-22T09:50:18.942Z,16.99
2023-03-22T09:51:18.926Z,17.30
2023-03-22T09:52:18.960Z,17.41
2023-03-22T09:53:18.901Z,17.54
2023-03-22T09:54:18.896Z,17.92
2023-03-22T09:55:18.891Z,18.12
2023-03-22T09:56:18.865Z,17.93
2023-03-22T09:57:18.866Z,17.68
2023-03-22T09:58:18.882Z,17.67
2023-03-22T09:59:18.837Z,17.50
2023-03-22T10:00:18.990Z,17.61
2023-03-22T10:01:21.012Z,17.85
2023-03-22T10:02:18.971Z,17.90
2023-03-22T10:03:18.792Z,18.26
2023-03-22T10:04:18.807Z,18.36
2023-03-22T10:05:18.803Z,18.07
2023-03-22T10:06:18.751Z,18.08
2023-03-22T10:07:18.746Z,18.60
2023-03-22T10:08:18.731Z,19.21
2023-03-22T10:09:18.789Z,19.94
2023-03-22T10:10:18.733Z,20.62
2023-03-22T10:11:18.699Z,20.64
2023-03-22T10:12:18.684Z,20.30
2023-03-22T10:13:18.678Z,19.75
2023-03-22T10:14:18.663Z,19.23
2023-03-22T10:15:18.657Z,18.60
2023-03-22T10:16:18.694Z,18.34
2023-03-22T10:17:18.630Z,18.48
2023-03-22T10:18:18.621Z,18.83
2023-03-22T10:19:18.610Z,19.16
2023-03-22T10:20:18.608Z,19.40
2023-03-22T10:21:18.629Z,19.30
2023-03-22T10:22:18.578Z,19.22
2023-03-22T10:23:18.569Z,19.22
2023-03-22T10:24:18.556Z,18.88
2023-03-22T10:25:18.542Z,18.70
2023-03-22T10:26:18.534Z,18.49
2023-03-22T10:27:18.521Z,18.49
2023-03-22T10:28:18.518Z,18.54
2023-03-22T10:29:18.508Z,18.57
2023-03-22T10:30:18.506Z,18.56
2023-03-22T10:31:18.502Z,18.43
2023-03-22T10:32:18.464Z,18.74
2023-03-22T10:33:18.450Z,18.76
2023-03-22T10:34:18.445Z,18.93
2023-03-22T10:35:18.446Z,19.21
2023-03-22T10:36:18.417Z,19.44
2023-03-22T10:37:18.440Z,19.30
2023-03-22T10:38:18.396Z,19.18
2023-03-22T10:39:18.392Z,19.23
2023-03-22T10:40:18.453Z,19.40
2023-03-22T10:41:18.362Z,19.55
2023-03-22T10:42:18.348Z,19.78
2023-03-22T10:43:18.340Z,19.70
2023-03-22T10:44:18.332Z,20.00
2023-03-22T10:45:18.321Z,19.90
2023-03-22T10:46:18.390Z,19.61
2023-03-22T10:47:18.301Z,19.38
2023-03-22T10:48:19.493Z,19.67
2023-03-22T10:49:18.268Z,19.87
2023-03-22T10:50:18.435Z,19.79
2023-03-22T10:51:18.250Z,20.02
2023-03-22T10:52:18.237Z,19.99
2023-03-22T10:53:18.269Z,19.58
2023-03-22T10:54:18.225Z,19.33
2023-03-22T10:55:18.206Z,19.30
2023-03-22T10:56:18.188Z,19.26
2023-03-22T10:57:18.181Z,19.33
2023-03-22T10:58:18.171Z,19.41
2023-03-22T10:59:18.156Z,19.18
2023-03-22T11:00:18.313Z,19.06
2023-03-22T11:01:18.248Z,18.86
2023-03-22T11:02:18.349Z,18.89
2023-03-22T11:03:18.112Z,18.91
2023-03-22T11:04:18.107Z,19.11
2023-03-22T11:05:18.094Z,19.30
2023-03-22T11:06:18.078Z,19.25
2023-03-22T11:07:18.066Z,19.04
2023-03-22T11:08:18.055Z,19.22
2023-03-22T11:09:18.072Z,19.49
2023-03-22T11:10:18.164Z,19.55
2023-03-22T11:11:18.027Z,19.25
2023-03-22T11:12:18.014Z,19.22
2023-03-22T11:13:18.017Z,18.98
2023-03-22T11:14:17.993Z,18.79
2023-03-22T11:15:17.984Z,18.91
2023-03-22T11:16:18.082Z,18.94
2023-03-22T11:17:17.957Z,18.97
2023-03-22T11:18:17.968Z,19.46
2023-03-22T11:19:17.936Z,20.02
2023-03-22T11:20:18.038Z,20.25
2023-03-22T11:21:17.912Z,20.73
2023-03-22T11:22:17.899Z,20.52
2023-03-22T11:23:17.941Z,20.41
2023-03-22T11:24:17.882Z,20.47
2023-03-22T11:25:17.885Z,19.99
2023-03-22T11:26:17.848Z,19.51
2023-03-22T11:27:17.845Z,19.06
2023-03-22T11:28:17.848Z,18.83
2023-03-22T11:29:17.816Z,18.93
2023-03-22T11:30:17.815Z,18.83
2023-03-22T11:31:17.872Z,18.81
2023-03-22T11:32:17.891Z,18.78
2023-03-22T11:33:17.887Z,18.67
2023-03-22T11:34:17.774Z,18.67
2023-03-22T11:35:17.773Z,18.52
2023-03-22T11:36:17.736Z,18.42
2023-03-22T11:37:18.303Z,18.45
2023-03-22T11:38:18.966Z,18.49
2023-03-22T11:39:17.709Z,18.68
2023-03-22T11:40:17.704Z,18.89
2023-03-22T11:41:17.713Z,18.88
2023-03-22T11:42:17.684Z,18.81
2023-03-22T11:43:17.659Z,18.75
2023-03-22T11:44:17.652Z,18.78
2023-03-22T11:45:17.637Z,18.76
2023-03-22T11:46:17.674Z,19.06
2023-03-22T11:47:17.614Z,19.31
2023-03-22T11:48:17.700Z,19.40
2023-03-22T11:49:17.616Z,19.30
2023-03-22T11:50:17.579Z,19.08
2023-03-22T11:51:17.579Z,19.22
2023-03-22T11:52:17.564Z,19.41
2023-03-22T11:53:17.551Z,19.59
2023-03-22T11:54:17.539Z,19.81
2023-03-22T11:55:17.530Z,20.04
2023-03-22T11:56:17.521Z,20.05
2023-03-22T11:57:17.534Z,19.79
2023-03-22T11:58:17.497Z,19.01
2023-03-22T11:59:17.500Z,18.96
2023-03-22T12:00:17.474Z,19.26
2023-03-22T12:01:17.459Z,19.67
2023-03-22T12:02:17.482Z,20.08
2023-03-22T12:03:17.561Z,20.44
2023-03-22T12:04:17.493Z,20.81
2023-03-22T12:05:17.447Z,21.26
2023-03-22T12:06:17.460Z,21.58
2023-03-22T12:07:17.391Z,21.73
2023-03-22T12:08:17.379Z,21.60
2023-03-22T12:09:17.372Z,21.66
2023-03-22T12:10:17.353Z,21.55
2023-03-22T12:11:17.346Z,21.43
2023-03-22T12:12:17.342Z,21.50
2023-03-22T12:13:17.351Z,21.99
2023-03-22T12:14:17.328Z,22.32
2023-03-22T12:15:17.305Z,22.27
2023-03-22T12:16:17.329Z,22.08
2023-03-22T12:17:17.275Z,22.03
2023-03-22T12:18:17.427Z,21.80
2023-03-22T12:19:17.256Z,21.63
2023-03-22T12:20:17.252Z,21.71
2023-03-22T12:21:17.235Z,21.77
2023-03-22T12:22:17.224Z,21.53
2023-03-22T12:23:17.230Z,21.60
2023-03-22T12:24:17.208Z,21.55
2023-03-22T12:25:17.670Z,21.53
2023-03-22T12:26:17.178Z,21.78
2023-03-22T12:27:17.167Z,22.21
2023-03-22T12:28:17.153Z,22.33
2023-03-22T12:29:17.181Z,22.22
2023-03-22T12:30:17.135Z,22.15
2023-03-22T12:31:17.190Z,21.51
2023-03-22T12:32:17.110Z,21.06
2023-03-22T12:33:17.285Z,21.18
2023-03-22T12:34:17.091Z,20.99
2023-03-22T12:35:18.225Z,20.92
2023-03-22T12:36:17.150Z,20.94
2023-03-22T12:37:17.055Z,20.87
2023-03-22T12:38:17.051Z,21.04
2023-03-22T12:39:17.032Z,21.25
2023-03-22T12:40:17.043Z,21.19
2023-03-22T12:41:17.017Z,21.07
2023-03-22T12:42:16.999Z,20.88
2023-03-22T12:43:16.993Z,20.78
2023-03-22T12:44:16.979Z,20.70
2023-03-22T12:45:16.999Z,21.28
2023-03-22T12:46:17.022Z,21.47
2023-03-22T12:47:17.116Z,21.58
2023-03-22T12:48:17.120Z,21.62
2023-03-22T12:49:16.931Z,21.71
2023-03-22T12:50:16.923Z,21.50
2023-03-22T12:51:16.906Z,21.30
2023-03-22T12:52:16.888Z,21.65